Time;durP1;ratioP1;P1;durP2;ratioP2;P2;SDS_P1;SDS_P2;PMS_P1;PMS_P2;Temp;Humidity;BMP_temperature;BMP_pressure;BME280_temperature;BME280_humidity;BME280_pressure;Samples;Min_cycle;Max_cycle;Signal;HPM_P1;HPM_P2
2024/01/26 00:01:41;;;;;;;3.20;2.00;;;;;;;1.61;79.25;99336.50;105329;1253;96481;-75
2024/01/26 00:04:09;;;;;;;3.40;2.00;;;;;;;1.61;79.49;99341.77;105930;1254;106141;-75
2024/01/26 00:06:37;;;;;;;5.80;3.00;;;;;;;1.58;79.36;99343.76;105428;1257;96613;-75
2024/01/26 00:09:10;;;;;;;5.60;2.90;;;;;;;1.57;79.15;99346.44;105685;1257;98078;-75
2024/01/26 00:11:40;;;;;;;4.30;2.20;;;;;;;1.57;79.58;99353.41;105378;1266;112023;-74
2024/01/26 00:14:09;;;;;;;4.00;1.40;;;;;;;1.57;79.03;99356.40;105764;1257;96706;-76
2024/01/26 00:16:37;;;;;;;4.00;2.30;;;;;;;1.54;79.34;99359.61;105986;1253;107810;-76
2024/01/26 00:19:06;;;;;;;3.50;2.10;;;;;;;1.55;79.32;99364.13;105485;1257;96619;-75
2024/01/26 00:21:36;;;;;;;3.00;2.30;;;;;;;1.54;79.38;99370.64;107369;1253;96601;-75
2024/01/26 00:24:05;;;;;;;4.70;2.10;;;;;;;1.54;79.45;99369.78;106268;1256;111636;-75
2024/01/26 00:26:33;;;;;;;5.70;2.70;;;;;;;1.55;79.26;99374.80;105518;1257;96665;-75
2024/01/26 00:29:00;;;;;;;4.90;2.10;;;;;;;1.56;79.36;99376.17;105606;1257;107175;-75
2024/01/26 00:31:28;;;;;;;3.50;2.00;;;;;;;1.54;79.21;99384.45;106261;1253;96604;-75
2024/01/26 00:33:56;;;;;;;2.40;1.40;;;;;;;1.49;78.84;99386.35;105799;1256;96540;-75
2024/01/26 00:36:24;;;;;;;4.80;1.90;;;;;;;1.46;79.06;99388.52;107114;1253;109570;-75
2024/01/26 00:38:52;;;;;;;18.00;6.30;;;;;;;1.46;79.11;99391.14;105878;1252;97497;-76
2024/01/26 00:41:20;;;;;;;6.50;2.10;;;;;;;1.48;79.14;99390.20;105893;1258;107670;-76
2024/01/26 00:43:47;;;;;;;5.80;2.70;;;;;;;1.49;79.05;99391.92;105747;1257;97786;-74
2024/01/26 00:46:15;;;;;;;4.30;2.50;;;;;;;1.49;78.97;99394.88;105907;1256;96535;-76
2024/01/26 00:48:43;;;;;;;8.30;2.80;;;;;;;1.48;79.14;99389.52;105605;1255;109007;-75
2024/01/26 00:51:11;;;;;;;4.30;1.90;;;;;;;1.48;79.26;99393.52;105328;1253;96598;-75
2024/01/26 00:53:39;;;;;;;4.30;2.20;;;;;;;1.48;78.95;99390.89;105424;1257;107384;-75
2024/01/26 00:56:07;;;;;;;4.50;2.70;;;;;;;1.48;78.97;99389.16;105468;1257;97837;-76
2024/01/26 00:58:34;;;;;;;4.50;2.10;;;;;;;1.46;78.87;99388.71;106321;1252;97547;-75
2024/01/26 01:01:03;;;;;;;3.70;2.50;;;;;;;1.44;78.73;99390.31;106270;1252;109364;-75
2024/01/26 01:03:31;;;;;;;3.10;2.40;;;;;;;1.43;78.47;99391.43;105762;1257;96648;-75
2024/01/26 01:06:00;;;;;;;3.60;2.40;;;;;;;1.41;78.32;99396.38;105598;1252;107216;-76
2024/01/26 01:08:28;;;;;;;5.20;2.80;;;;;;;1.40;78.45;99401.64;105696;1253;96611;-75
2024/01/26 01:10:56;;;;;;;5.50;2.50;;;;;;;1.38;78.17;99397.69;106607;1252;97878;-75
2024/01/26 01:13:25;;;;;;;6.80;2.90;;;;;;;1.35;78.31;99400.23;108423;1252;109539;-74
2024/01/26 01:15:52;;;;;;;3.10;1.90;;;;;;;1.34;77.95;99397.79;106530;1252;96589;-76
2024/01/26 01:18:20;;;;;;;3.30;1.80;;;;;;;1.33;77.78;99396.24;105415;1257;108244;-76
2024/01/26 01:20:49;;;;;;;7.70;2.50;;;;;;;1.30;78.08;99399.30;105595;1253;97200;-75
2024/01/26 01:23:17;;;;;;;3.80;2.30;;;;;;;1.30;78.06;99402.10;105601;1253;96606;-76
2024/01/26 01:25:45;;;;;;;5.30;2.30;;;;;;;1.28;77.72;99408.10;106725;1257;109865;-75
2024/01/26 01:28:13;;;;;;;4.90;2.70;;;;;;;1.25;77.76;99407.48;105601;1257;97969;-75
2024/01/26 01:30:40;;;;;;;6.20;2.50;;;;;;;1.25;77.67;99406.77;106091;1254;107611;-75
2024/01/26 01:33:08;;;;;;;3.10;1.70;;;;;;;1.25;77.95;99409.95;106119;1252;96720;-76
2024/01/26 01:35:37;;;;;;;3.40;1.90;;;;;;;1.24;77.70;99406.29;105666;1252;96504;-75
2024/01/26 01:38:04;;;;;;;3.40;2.10;;;;;;;1.22;77.53;99406.73;106542;1252;109882;-76
2024/01/26 01:40:32;;;;;;;5.80;2.90;;;;;;;1.18;77.53;99405.96;105750;1252;97937;-75
2024/01/26 01:43:01;;;;;;;3.60;2.40;;;;;;;1.15;77.47;99407.95;105243;1253;105937;-75
2024/01/26 01:45:28;;;;;;;4.70;2.30;;;;;;;1.15;77.53;99412.66;105298;1257;96592;-76
2024/01/26 01:47:56;;;;;;;5.30;2.30;;;;;;;1.15;77.27;99415.30;105872;1252;96672;-75
2024/01/26 01:50:24;;;;;;;3.70;2.20;;;;;;;1.13;77.25;99411.66;106449;1253;109681;-75
2024/01/26 01:52:55;;;;;;;5.90;2.30;;;;;;;1.13;77.22;99414.66;105143;1258;96600;-75
2024/01/26 01:55:24;;;;;;;3.30;2.10;;;;;;;1.13;77.11;99407.67;106484;1252;106559;-75
2024/01/26 01:57:54;;;;;;;6.70;3.80;;;;;;;1.12;77.07;99406.46;106913;1252;96594;-76
2024/01/26 02:00:23;;;;;;;3.60;2.10;;;;;;;1.15;77.08;99408.67;107654;1252;96592;-74
2024/01/26 02:02:52;;;;;;;4.90;1.70;;;;;;;1.14;76.81;99408.68;107844;1253;109666;-75
2024/01/26 02:05:20;;;;;;;2.10;1.40;;;;;;;1.12;76.77;99409.06;105785;1258;97664;-75
2024/01/26 02:07:49;;;;;;;3.30;1.70;;;;;;;1.12;76.85;99403.15;105845;1257;106156;-74
2024/01/26 02:10:18;;;;;;;3.10;1.60;;;;;;;1.11;76.80;99403.70;105344;1259;96601;-75
2024/01/26 02:12:46;;;;;;;2.60;1.60;;;;;;;1.10;76.70;99403.90;106483;1256;96699;-76
2024/01/26 02:15:14;;;;;;;2.60;1.60;;;;;;;1.09;76.75;99406.55;105662;1261;110015;-76
2024/01/26 02:17:42;;;;;;;3.60;2.40;;;;;;;1.10;76.67;99409.50;105779;1255;97478;-76
2024/01/26 02:20:10;;;;;;;1.30;0.80;;;;;;;1.10;76.56;99408.45;107804;1252;108023;-75
2024/01/26 02:22:38;;;;;;;2.50;1.50;;;;;;;1.09;76.61;99411.78;106634;1253;96591;-75
2024/01/26 02:25:07;;;;;;;1.70;1.20;;;;;;;1.07;76.09;99419.55;106034;1257;96518;-75
2024/01/26 02:27:35;;;;;;;3.80;1.90;;;;;;;1.06;75.98;99420.42;106059;1252;109879;-76
2024/01/26 02:30:04;;;;;;;2.90;1.70;;;;;;;1.07;76.31;99424.06;106386;1252;96690;-75
2024/01/26 02:32:33;;;;;;;4.60;2.20;;;;;;;1.09;76.10;99428.39;105690;1257;107221;-76
2024/01/26 02:35:01;;;;;;;2.70;1.70;;;;;;;1.09;76.35;99430.64;105752;1253;96508;-75
2024/01/26 02:37:29;;;;;;;3.60;2.00;;;;;;;1.11;76.17;99433.91;105916;1253;97825;-75
2024/01/26 02:39:57;;;;;;;3.20;1.50;;;;;;;1.13;76.23;99436.13;107096;1252;109724;-75
2024/01/26 02:42:25;;;;;;;2.90;2.00;;;;;;;1.12;76.06;99435.29;106399;1252;96528;-76
2024/01/26 02:44:53;;;;;;;3.10;1.70;;;;;;;1.11;76.27;99436.19;106536;1256;107362;-75
2024/01/26 02:47:21;;;;;;;1.60;1.20;;;;;;;1.08;76.04;99439.24;105576;1259;96684;-75
2024/01/26 02:49:49;;;;;;;3.00;1.90;;;;;;;1.08;75.88;99440.66;105606;1256;96633;-75
2024/01/26 02:52:17;;;;;;;3.10;2.20;;;;;;;1.05;75.95;99442.98;105450;1257;109874;-75
2024/01/26 02:54:44;;;;;;;3.60;2.00;;;;;;;1.05;75.93;99444.02;105433;1254;96595;-75
2024/01/26 02:57:13;;;;;;;3.00;1.80;;;;;;;1.03;76.13;99447.74;105389;1259;107604;-76
2024/01/26 02:59:40;;;;;;;5.20;2.30;;;;;;;1.03;76.32;99446.54;105369;1256;96664;-76
2024/01/26 03:02:08;;;;;;;4.10;2.10;;;;;;;1.04;75.90;99451.56;106064;1253;96972;-75
2024/01/26 03:04:36;;;;;;;4.60;2.10;;;;;;;1.03;76.17;99454.05;105339;1257;109297;-75
2024/01/26 03:07:04;;;;;;;5.10;3.60;;;;;;;1.02;76.00;99460.19;105375;1257;96579;-75
2024/01/26 03:09:32;;;;;;;6.90;3.50;;;;;;;1.01;76.17;99464.20;105496;1253;107988;-75
2024/01/26 03:12:00;;;;;;;11.50;4.50;;;;;;;1.03;76.03;99472.55;106592;1252;96615;-76
2024/01/26 03:14:29;;;;;;;4.50;2.40;;;;;;;1.04;76.21;99481.95;105172;1257;96509;-76
2024/01/26 03:16:57;;;;;;;3.80;2.40;;;;;;;1.05;76.08;99478.80;105849;1254;108607;-76
2024/01/26 03:19:25;;;;;;;4.00;2.20;;;;;;;1.06;76.07;99477.55;105788;1254;97474;-75
2024/01/26 03:21:53;;;;;;;4.40;2.70;;;;;;;1.07;76.00;99479.79;105493;1259;107588;-77
2024/01/26 03:24:21;;;;;;;5.60;2.60;;;;;;;1.08;76.17;99481.49;105730;1257;96592;-75
2024/01/26 03:26:48;;;;;;;8.40;2.70;;;;;;;1.10;76.33;99485.81;105244;1258;96609;-75
2024/01/26 03:29:16;;;;;;;3.60;2.30;;;;;;;1.11;76.03;99491.57;107841;1253;109688;-76
2024/01/26 03:31:44;;;;;;;2.20;1.50;;;;;;;1.09;76.01;99492.48;105552;1257;96603;-76
2024/01/26 03:34:12;;;;;;;3.00;1.70;;;;;;;1.08;76.03;99496.70;105572;1255;107619;-76
2024/01/26 03:36:40;;;;;;;3.30;1.90;;;;;;;1.09;75.87;99503.14;105760;1257;97628;-75
2024/01/26 03:39:09;;;;;;;3.80;2.00;;;;;;;1.09;75.99;99504.70;105854;1257;96589;-75
2024/01/26 03:41:40;;;;;;;4.20;2.30;;;;;;;1.09;75.85;99512.05;106030;1253;108815;-75
2024/01/26 03:44:11;;;;;;;4.10;2.20;;;;;;;1.09;75.84;99513.98;106457;1257;96430;-75
2024/01/26 03:46:43;;;;;;;4.20;2.50;;;;;;;1.08;75.93;99515.38;105815;1257;108628;-75
2024/01/26 03:49:11;;;;;;;3.50;2.20;;;;;;;1.11;75.71;99511.30;106273;1257;96673;-75
2024/01/26 03:51:39;;;;;;;3.70;1.80;;;;;;;1.14;75.79;99513.52;108586;1253;94472;-75
2024/01/26 03:54:07;;;;;;;3.60;1.90;;;;;;;1.13;75.83;99509.48;106877;1253;109348;-75
2024/01/26 03:56:35;;;;;;;3.90;2.00;;;;;;;1.15;75.59;99513.98;106087;1257;97033;-75
2024/01/26 03:59:04;;;;;;;2.60;1.60;;;;;;;1.16;75.38;99516.58;107864;1252;108292;-74
2024/01/26 04:01:32;;;;;;;4.60;2.50;;;;;;;1.15;75.53;99519.75;106315;1256;96612;-76
2024/01/26 04:04:00;;;;;;;4.00;2.50;;;;;;;1.15;75.44;99520.11;105312;1253;96494;-75
2024/01/26 04:06:40;;;;;;;4.80;3.10;;;;;;;1.18;75.66;99528.23;105820;1257;109731;-75
2024/01/26 04:09:09;;;;;;;4.50;2.10;;;;;;;1.20;75.39;99540.77;106970;1253;96656;-75
2024/01/26 04:11:37;;;;;;;5.80;2.50;;;;;;;1.19;75.48;99544.45;106588;1252;107703;-74
2024/01/26 04:14:05;;;;;;;4.00;2.10;;;;;;;1.19;75.36;99551.27;105600;1259;96757;-75
2024/01/26 04:16:33;;;;;;;3.10;2.00;;;;;;;1.19;75.46;99560.87;105274;1253;96607;-75
2024/01/26 04:19:01;;;;;;;2.30;1.70;;;;;;;1.17;75.35;99561.61;105592;1257;110008;-76
2024/01/26 04:21:29;;;;;;;2.50;1.90;;;;;;;1.17;75.47;99559.38;105825;1256;96514;-75
2024/01/26 04:23:57;;;;;;;2.60;1.80;;;;;;;1.15;75.30;99560.27;105444;1253;107302;-76
2024/01/26 04:26:25;;;;;;;5.00;2.60;;;;;;;1.15;75.30;99571.46;106029;1257;96587;-75
2024/01/26 04:28:53;;;;;;;3.30;2.10;;;;;;;1.14;75.03;99575.52;105587;1257;96511;-76
2024/01/26 04:31:23;;;;;;;3.60;1.90;;;;;;;1.13;75.11;99579.38;106251;1255;109605;-75
2024/01/26 04:33:51;;;;;;;1.90;1.50;;;;;;;1.12;74.87;99579.56;108477;1253;94597;-74
2024/01/26 04:36:20;;;;;;;3.30;1.70;;;;;;;1.11;74.83;99585.54;107922;1256;106628;-75
2024/01/26 04:38:47;;;;;;;2.90;2.00;;;;;;;1.11;74.84;99585.19;105702;1256;96639;-76
2024/01/26 04:41:15;;;;;;;3.90;2.00;;;;;;;1.10;74.74;99592.02;105904;1256;97536;-75
2024/01/26 04:43:43;;;;;;;1.70;1.40;;;;;;;1.10;74.73;99592.54;105406;1264;109508;-76
2024/01/26 04:46:11;;;;;;;4.20;2.00;;;;;;;1.10;74.61;99594.81;105504;1253;96580;-75
2024/01/26 04:48:40;;;;;;;3.00;2.00;;;;;;;1.08;74.68;99592.95;105386;1256;107288;-75
2024/01/26 04:51:08;;;;;;;3.80;2.20;;;;;;;1.08;74.60;99598.02;106428;1257;96665;-75
2024/01/26 04:53:36;;;;;;;2.90;1.90;;;;;;;1.09;74.49;99599.75;105416;1266;97525;-75
2024/01/26 04:56:04;;;;;;;2.80;1.60;;;;;;;1.07;74.25;99601.52;106844;1256;109241;-75
2024/01/26 04:58:32;;;;;;;4.70;1.80;;;;;;;1.06;74.54;99598.76;105311;1259;96538;-76
2024/01/26 05:01:00;;;;;;;2.70;1.70;;;;;;;1.04;74.33;99603.52;105405;1253;106874;-75
2024/01/26 05:03:27;;;;;;;4.70;1.80;;;;;;;1.05;74.20;99607.34;106319;1257;96601;-74
2024/01/26 05:05:56;;;;;;;3.00;1.80;;;;;;;1.04;74.28;99611.02;105624;1254;96643;-74
2024/01/26 05:08:24;;;;;;;2.90;1.40;;;;;;;1.04;74.55;99612.08;105709;1256;107860;-74
2024/01/26 05:10:52;;;;;;;5.30;1.70;;;;;;;1.04;74.43;99614.34;105345;1258;96589;-75
2024/01/26 05:13:19;;;;;;;4.00;2.00;;;;;;;1.02;74.17;99613.16;106600;1255;107642;-73
2024/01/26 05:15:47;;;;;;;2.50;1.40;;;;;;;1.03;74.03;99614.55;105408;1253;96843;-74
2024/01/26 05:18:15;;;;;;;3.00;1.90;;;;;;;1.01;74.02;99617.91;107323;1253;96508;-74
2024/01/26 05:20:43;;;;;;;3.50;1.70;;;;;;;1.01;74.27;99619.14;107224;1253;109672;-73
2024/01/26 05:23:11;;;;;;;3.20;1.70;;;;;;;1.02;74.07;99626.62;105384;1253;96606;-73
2024/01/26 05:25:39;;;;;;;2.00;1.40;;;;;;;1.03;74.01;99632.89;106879;1256;106606;-73
2024/01/26 05:28:07;;;;;;;2.80;1.90;;;;;;;1.02;73.90;99639.18;108511;1253;94515;-72
2024/01/26 05:30:35;;;;;;;3.30;1.90;;;;;;;1.04;73.94;99642.13;106768;1253;96579;-72
2024/01/26 05:33:03;;;;;;;2.40;1.40;;;;;;;1.03;73.90;99646.68;106201;1256;109589;-73
2024/01/26 05:35:31;;;;;;;1.60;1.10;;;;;;;1.04;73.58;99650.68;105662;1259;96636;-73
2024/01/26 05:37:59;;;;;;;3.50;1.90;;;;;;;1.01;73.39;99651.13;105890;1258;107595;-74
2024/01/26 05:40:27;;;;;;;3.50;1.80;;;;;;;1.02;73.64;99654.75;105793;1253;96581;-72
2024/01/26 05:42:54;;;;;;;2.60;1.70;;;;;;;1.02;73.40;99659.46;105835;1254;97035;-72
2024/01/26 05:45:22;;;;;;;5.20;2.00;;;;;;;1.03;73.34;99656.30;108647;1253;109713;-73
2024/01/26 05:47:51;;;;;;;3.30;2.20;;;;;;;1.02;73.32;99658.77;108728;1253;94640;-73
2024/01/26 05:50:21;;;;;;;2.70;1.60;;;;;;;1.03;73.51;99659.77;108720;1252;107583;-74
2024/01/26 05:52:49;;;;;;;5.00;2.20;;;;;;;1.07;73.53;99663.90;108702;1256;94723;-74
2024/01/26 05:55:17;;;;;;;2.60;1.60;;;;;;;1.11;73.74;99664.84;108734;1253;94452;-75
2024/01/26 05:57:44;;;;;;;4.60;2.10;;;;;;;1.10;73.45;99668.00;107452;1257;110385;-72
2024/01/26 06:00:13;;;;;;;3.90;2.40;;;;;;;1.11;73.56;99666.08;105242;1258;96662;-72
2024/01/26 06:02:45;;;;;;;2.80;1.90;;;;;;;1.10;73.57;99668.36;105732;1257;107560;-73
2024/01/26 06:05:13;;;;;;;3.40;2.20;;;;;;;1.09;73.51;99666.46;105334;1260;96721;-74
2024/01/26 06:07:44;;;;;;;3.20;2.20;;;;;;;1.09;73.52;99665.05;107685;1254;94465;-69
2024/01/26 06:10:11;;;;;;;3.70;2.10;;;;;;;1.10;73.75;99666.98;106325;1258;108891;-71
2024/01/26 06:12:40;;;;;;;3.50;1.90;;;;;;;1.12;73.64;99666.92;105479;1257;96597;-70
2024/01/26 06:15:09;;;;;;;4.60;2.10;;;;;;;1.10;73.76;99668.35;105240;1259;107397;-69
2024/01/26 06:17:38;;;;;;;4.70;2.70;;;;;;;1.11;73.72;99668.88;105679;1257;97914;-69
2024/01/26 06:20:07;;;;;;;6.40;3.70;;;;;;;1.10;73.67;99669.56;105752;1256;97895;-73
2024/01/26 06:22:35;;;;;;;6.40;3.20;;;;;;;1.11;73.84;99669.91;105892;1257;109942;-72
2024/01/26 06:25:05;;;;;;;10.20;3.40;;;;;;;1.10;73.69;99673.43;105858;1256;96703;-73
2024/01/26 06:27:34;;;;;;;5.00;3.60;;;;;;;1.07;73.65;99680.48;105712;1253;107562;-71
2024/01/26 06:30:05;;;;;;;6.00;3.60;;;;;;;1.07;73.43;99684.86;108338;1256;96555;-77
2024/01/26 06:32:59;;;;;;;6.10;4.00;;;;;;;1.04;73.81;99687.36;105645;1259;97309;-77
2024/01/26 06:35:30;;;;;;;5.00;2.70;;;;;;;1.04;73.68;99691.20;106397;1256;109911;-78
2024/01/26 06:51:30;;;;;;;;;;;;;;;;;;;;;
2024/01/26 06:55:38;;;;;;;;;;;;;;;;;;;;;
2024/01/26 07:03:56;;;;;;;4.80;2.50;;;;;;;1.00;73.57;99726.76;106543;1266;108017;-83
2024/01/26 07:06:24;;;;;;;6.30;2.90;;;;;;;1.02;73.61;99728.80;105825;1254;96560;-77
2024/01/26 07:08:52;;;;;;;4.90;2.40;;;;;;;1.02;73.63;99725.13;105553;1257;97521;-77
2024/01/26 07:11:22;;;;;;;6.60;1.90;;;;;;;1.04;73.57;99725.62;106688;1257;109884;-77
2024/01/26 07:13:50;;;;;;;4.80;2.50;;;;;;;1.03;73.38;99729.98;108304;1253;95507;-78
2024/01/26 07:21:19;;;;;;;;;;;;;;;1.00;73.36;99720.11;105172;1256;97529;-78
2024/01/26 07:24:35;;;;;;;3.20;1.70;;;;;;;1.03;73.16;99723.89;106363;1255;96743;-80
2024/01/26 07:27:06;;;;;;;4.10;1.90;;;;;;;1.03;73.45;99727.55;106591;1257;109777;-76
2024/01/26 07:30:02;;;;;;;3.00;2.10;;;;;;;1.04;73.37;99735.55;105370;1257;96715;-80
2024/01/26 07:32:34;;;;;;;3.00;2.00;;;;;;;1.05;73.33;99736.59;105647;1255;107575;-79
2024/01/26 07:35:04;;;;;;;3.70;2.10;;;;;;;1.04;73.44;99737.66;105397;1259;96779;-80
2024/01/26 07:51:13;;;;;;;4.90;2.70;;;;;;;1.04;73.22;99723.88;105098;1260;109094;-82
2024/01/26 07:53:41;;;;;;;5.30;2.70;;;;;;;1.08;73.13;99732.00;105052;1265;96673;-73
2024/01/26 07:56:09;;;;;;;4.50;2.90;;;;;;;1.09;73.22;99731.44;105551;1257;96663;-74
2024/01/26 07:58:38;;;;;;;6.00;3.60;;;;;;;1.09;73.42;99735.11;105747;1257;110071;-75
2024/01/26 08:01:06;;;;;;;5.70;3.20;;;;;;;1.09;73.35;99733.01;105691;1254;96516;-73
2024/01/26 08:03:35;;;;;;;3.80;2.70;;;;;;;1.12;73.47;99728.05;106586;1256;107712;-73
2024/01/26 08:06:03;;;;;;;6.50;3.80;;;;;;;1.14;73.16;99730.27;108516;1259;94582;-75
2024/01/26 08:08:31;;;;;;;6.70;3.80;;;;;;;1.15;73.07;99727.98;105878;1255;97535;-74
2024/01/26 08:11:00;;;;;;;9.70;4.50;;;;;;;1.19;73.31;99729.64;106831;1255;109740;-75
2024/01/26 08:13:27;;;;;;;5.90;3.60;;;;;;;1.21;73.04;99726.98;106676;1254;96616;-74
2024/01/26 08:16:55;;;;;;;5.80;3.70;;;;;;;1.20;73.04;99727.70;107530;1253;107438;-82
2024/01/26 08:19:25;;;;;;;4.40;2.60;;;;;;;1.20;72.92;99730.31;106910;1255;97547;-78
2024/01/26 08:21:59;;;;;;;8.00;3.70;;;;;;;1.21;73.16;99726.98;105610;1256;96613;-79
2024/01/26 08:24:27;;;;;;;5.90;3.30;;;;;;;1.22;73.04;99722.58;105310;1255;108381;-78
2024/01/26 08:26:55;;;;;;;10.70;5.30;;;;;;;1.24;72.92;99724.29;105496;1253;96530;-77
2024/01/26 08:29:26;;;;;;;5.90;3.70;;;;;;;1.25;72.82;99725.30;106147;1254;107188;-77
2024/01/26 08:31:54;;;;;;;8.00;4.20;;;;;;;1.25;73.03;99723.73;105724;1255;96598;-78
2024/01/26 08:34:22;;;;;;;10.30;5.70;;;;;;;1.27;72.95;99715.48;105829;1255;96598;-78
2024/01/26 08:36:51;;;;;;;7.80;4.20;;;;;;;1.28;72.82;99714.91;106359;1252;109668;-78
2024/01/26 08:39:19;;;;;;;8.60;4.60;;;;;;;1.28;72.67;99717.36;107153;1252;97908;-77
2024/01/26 08:46:41;;;;;;;6.20;3.70;;;;;;;1.26;72.50;99730.54;105907;1262;97552;-83
2024/01/26 08:49:31;;;;;;;8.50;4.60;;;;;;;1.31;72.52;99736.68;105935;1252;97598;-82
2024/01/26 08:52:13;;;;;;;5.90;3.00;;;;;;;1.33;72.62;99746.60;105777;1264;109602;-78
2024/01/26 08:54:47;;;;;;;5.50;3.50;;;;;;;1.35;72.17;99751.64;105674;1250;96605;-76
2024/01/26 08:57:15;;;;;;;8.10;2.70;;;;;;;1.33;72.14;99754.65;108347;1250;107689;-76
2024/01/26 08:59:46;;;;;;;5.30;3.10;;;;;;;1.32;72.24;99761.81;105540;1253;96651;-77
2024/01/26 09:02:39;;;;;;;17.30;8.50;;;;;;;1.33;72.11;99763.90;107169;1252;96659;-79
2024/01/26 09:05:10;;;;;;;8.50;3.90;;;;;;;1.36;71.93;99767.70;107522;1253;110548;-76
2024/01/26 09:07:53;;;;;;;6.40;3.90;;;;;;;1.36;72.04;99764.55;106383;1250;96534;-77
2024/01/26 09:14:42;;;;;;;;;;;;;;;1.34;71.44;99772.45;106901;1251;96706;-74
2024/01/26 09:17:10;;;;;;;3.70;2.90;;;;;;;1.30;71.21;99774.11;108691;1248;95524;-75
2024/01/26 09:19:40;;;;;;;3.10;2.40;;;;;;;1.27;71.42;99771.70;105297;1256;109672;-76
2024/01/26 09:22:08;;;;;;;7.60;3.30;;;;;;;1.30;71.45;99774.30;105807;1252;97401;-73
2024/01/26 09:24:36;;;;;;;30.60;8.90;;;;;;;1.32;71.52;99778.10;105846;1250;106254;-75
2024/01/26 09:27:04;;;;;;;9.80;4.80;;;;;;;1.36;71.80;99775.39;105570;1256;96693;-74
2024/01/26 09:29:32;;;;;;;11.80;4.60;;;;;;;1.39;71.67;99776.02;105704;1253;96571;-75
2024/01/26 09:32:00;;;;;;;5.00;2.90;;;;;;;1.41;71.69;99779.27;106584;1249;108938;-75
2024/01/26 09:34:29;;;;;;;6.60;3.40;;;;;;;1.43;71.76;99770.33;108444;1250;96972;-74
2024/01/26 09:36:58;;;;;;;35.20;19.50;;;;;;;1.43;71.55;99769.95;105746;1253;107467;-74
2024/01/26 09:39:27;;;;;;;22.70;11.40;;;;;;;1.43;71.33;99772.59;105537;1252;96592;-75
2024/01/26 09:41:55;;;;;;;16.80;8.30;;;;;;;1.41;71.40;99767.05;108412;1252;95344;-77
2024/01/26 09:49:10;;;;;;;;;;;;;;;1.37;71.35;99768.20;104893;1260;98043;-77
2024/01/26 09:51:39;;;;;;;10.40;5.10;;;;;;;1.33;71.25;99764.10;105316;1255;107033;-74
2024/01/26 09:54:08;;;;;;;6.10;3.80;;;;;;;1.34;71.25;99760.91;105639;1260;97975;-75
2024/01/26 09:56:38;;;;;;;13.60;6.70;;;;;;;1.36;71.21;99762.98;106196;1255;96709;-74
2024/01/26 09:59:08;;;;;;;13.70;7.10;;;;;;;1.40;71.75;99763.57;106194;1254;109618;-74
2024/01/26 10:01:39;;;;;;;55.40;21.60;;;;;;;1.39;71.50;99762.73;107080;1253;97291;-76
2024/01/26 10:04:10;;;;;;;11.80;6.80;;;;;;;1.35;71.26;99767.36;105589;1250;105774;-74
2024/01/26 10:06:39;;;;;;;6.40;4.50;;;;;;;1.35;71.27;99768.23;105972;1254;96489;-74
2024/01/26 10:09:10;;;;;;;9.60;5.20;;;;;;;1.32;71.31;99764.30;105590;1261;97385;-74
2024/01/26 10:11:38;;;;;;;7.30;4.90;;;;;;;1.33;71.33;99762.34;105822;1252;110189;-74
2024/01/26 10:14:07;;;;;;;9.00;4.40;;;;;;;1.34;71.45;99754.63;106565;1253;96563;-75
2024/01/26 10:16:38;;;;;;;8.40;5.20;;;;;;;1.33;71.31;99756.92;106598;1252;107467;-73
2024/01/26 10:20:07;;;;;;;15.00;10.00;;;;;;;1.33;71.49;99760.77;105743;1256;96585;-78
2024/01/26 10:22:43;;;;;;;75.10;26.50;;;;;;;1.34;71.47;99760.91;106183;1253;96565;-73
2024/01/26 10:25:51;;;;;;;;;;;;;;;;;;;;;
2024/01/26 10:29:27;;;;;;;;;;;;;;;;;;;;;
2024/01/26 10:39:56;;;;;;;42.40;15.90;;;;;;;1.36;71.38;99750.90;106425;1260;96438;-80
2024/01/26 10:47:13;;;;;;;32.90;12.80;;;;;;;1.39;71.65;99744.02;105828;1254;96747;-74
2024/01/26 10:49:42;;;;;;;91.00;35.10;;;;;;;1.41;71.64;99745.02;108169;1251;107267;-74
2024/01/26 10:57:07;;;;;;;28.80;12.10;;;;;;;1.42;71.39;99735.54;105094;1266;98062;-75
2024/01/26 11:00:16;;;;;;;;;;;;;;;;;;;;;
2024/01/26 11:24:58;;;;;;;;;;;;;;;;;;;;;
2024/01/26 11:28:48;;;;;;;9.30;5.90;;;;;;;2.00;71.64;99698.41;107459;1256;95651;-86
2024/01/26 11:34:10;;;;;;;;;;;;;;;;;;;;;
2024/01/26 11:38:19;;;;;;;19.40;9.00;;;;;;;2.08;71.80;99691.17;105403;1277;94528;-84
2024/01/26 11:41:11;;;;;;;32.40;12.50;;;;;;;2.04;71.54;99685.19;104980;1276;94359;-80
2024/01/26 11:44:00;;;;;;;28.50;11.80;;;;;;;2.00;71.85;99689.52;104632;1269;107307;-80
2024/01/26 11:46:29;;;;;;;14.50;6.60;;;;;;;2.02;71.79;99688.91;105861;1260;139389;-80
2024/01/26 11:49:23;;;;;;;17.40;7.30;;;;;;;1.95;71.54;99685.42;104876;1264;109831;-79
2024/01/26 11:52:26;;;;;;;22.80;9.30;;;;;;;1.92;71.49;99683.40;105542;1258;94720;-76
2024/01/26 11:55:29;;;;;;;20.50;10.20;;;;;;;1.96;71.44;99676.11;106088;1263;94409;-78
2024/01/26 11:58:20;;;;;;;27.90;10.00;;;;;;;2.00;71.53;99673.22;105195;1263;107129;-78
2024/01/26 12:01:49;;;;;;;;;;;;;;;;;;;;;
2024/01/26 12:05:09;;;;;;;31.20;12.40;;;;;;;2.04;71.41;99677.30;105561;1259;107292;-78
2024/01/26 12:08:27;;;;;;;;;;;;;;;;;;;;;
2024/01/26 12:11:00;;;;;;;18.40;6.90;;;;;;;1.98;71.31;99660.69;106092;1259;95250;-78
2024/01/26 12:13:49;;;;;;;23.20;10.00;;;;;;;1.97;71.35;99666.48;106440;1256;109006;-79
2024/01/26 12:16:33;;;;;;;27.40;11.80;;;;;;;1.99;71.62;99662.24;105179;1254;96328;-79
2024/01/26 12:27:49;;;;;;;12.50;6.10;;;;;;;2.21;71.50;99643.58;105444;1254;95260;-75
2024/01/26 12:30:16;;;;;;;;;;;;;;;2.24;71.75;99642.45;106424;1254;95389;-75
2024/01/26 12:32:42;;;;;;;12.90;6.10;;;;;;;2.28;71.48;99639.16;105753;1259;95386;-74
2024/01/26 12:35:10;;;;;;;13.80;6.70;;;;;;;2.28;71.47;99638.85;106130;1259;95920;-73
2024/01/26 12:37:36;;;;;;;;;;;;;;;2.27;71.51;99642.02;108195;1256;93918;-75
2024/01/26 12:40:06;;;;;;;10.20;5.60;;;;;;;2.28;71.59;99638.13;106601;1256;95971;-75
2024/01/26 13:06:33;;;;;;;;;;;;;;;;;;;;;
2024/01/26 13:24:10;;;;;;;14.30;4.50;;;;;;;2.46;71.47;99577.55;103802;1268;109222;-78
2024/01/26 13:43:36;;;;;;;17.90;6.50;;;;;;;2.52;71.74;99590.29;105167;1271;108734;-83
2024/01/26 13:51:19;;;;;;;11.00;5.60;;;;;;;2.60;71.90;99585.86;105500;1283;108449;-77
2024/01/26 13:54:39;;;;;;;12.30;4.70;;;;;;;2.59;72.00;99584.15;105112;1277;95436;-76
2024/01/26 13:58:16;;;;;;;21.50;8.20;;;;;;;2.59;71.95;99580.85;105414;1268;95468;-82
2024/01/26 14:00:59;;;;;;;32.40;9.70;;;;;;;2.58;71.53;99568.08;105334;1269;106674;-77
2024/01/26 14:03:38;;;;;;;24.60;10.70;;;;;;;2.60;71.52;99569.05;105783;1264;95481;-77
2024/01/26 14:11:25;;;;;;;30.40;9.70;;;;;;;2.59;71.72;99559.28;105200;1263;95284;-79
2024/01/26 14:14:40;;;;;;;26.80;11.80;;;;;;;2.60;71.71;99556.13;107245;1265;93599;-77
2024/01/26 14:17:07;;;;;;;22.80;9.30;;;;;;;2.61;71.70;99555.03;106441;1260;95311;-77
2024/01/26 14:19:35;;;;;;;20.40;9.60;;;;;;;2.64;71.60;99548.65;106314;1256;96223;-78
2024/01/26 14:23:06;;;;;;;;;;;;;;;;;;;;;
2024/01/26 14:35:42;;;;;;;;;;;;;;;;;;;;;
2024/01/26 14:39:40;;;;;;;;;;;;;;;;;;;;;
2024/01/26 14:43:08;;;;;;;;;;;;;;;;;;;;;
2024/01/26 14:46:29;;;;;;;20.80;8.80;;;;;;;2.79;72.20;99518.91;106772;1266;95167;-81
2024/01/26 14:49:40;;;;;;;;;;;;;;;;;;;;;
2024/01/26 14:53:16;;;;;;;23.30;10.60;;;;;;;2.80;72.09;99512.90;106462;1264;108910;-82
2024/01/26 15:05:28;;;;;;;;;;;;;;;;;;;;;
2024/01/26 15:08:49;;;;;;;20.80;10.50;;;;;;;2.81;71.99;99491.48;105096;1263;95188;-78
2024/01/26 15:11:37;;;;;;;29.50;14.50;;;;;;;2.80;72.07;99474.52;105681;1259;110766;-75
2024/01/26 15:18:28;;;;;;;;;;;;;;;;;;;;;
2024/01/26 15:22:35;;;;;;;33.30;16.00;;;;;;;2.79;72.27;99467.92;108131;1259;93244;-82
2024/01/26 15:26:48;;;;;;;;;;;;;;;;;;;;;
2024/01/26 15:30:14;;;;;;;51.10;24.10;;;;;;;2.76;72.32;99473.80;107770;1265;109431;-82
2024/01/26 15:32:59;;;;;;;61.90;29.00;;;;;;;2.72;72.30;99470.63;107848;1266;95089;-84
2024/01/26 15:35:25;;;;;;;59.50;31.70;;;;;;;2.73;72.51;99469.70;107830;1264;93414;-81
2024/01/26 15:37:52;;;;;;;71.00;34.70;;;;;;;2.74;72.59;99466.70;107872;1264;93181;-84
2024/01/26 15:40:20;;;;;;;63.30;32.60;;;;;;;2.73;72.38;99470.58;107933;1264;93091;-83
2024/01/26 15:42:46;;;;;;;63.50;32.10;;;;;;;2.73;72.34;99464.80;107859;1264;93468;-84
2024/01/26 15:45:13;;;;;;;57.10;28.50;;;;;;;2.74;72.50;99461.27;107935;1264;93087;-84